createdAt,value
2022-10-03T00:00:00.680Z,90.06
2022-10-03T00:01:00.664Z,90.26
2022-10-03T00:02:00.686Z,89.45
2022-10-03T00:03:00.667Z,90.06
2022-10-03T00:04:00.621Z,90.67
2022-10-03T00:05:00.631Z,91.18
2022-10-03T00:06:00.592Z,91.18
2022-10-03T00:07:00.591Z,91.59
2022-10-03T00:08:00.571Z,91.59
2022-10-03T00:09:00.561Z,92.26
2022-10-03T00:10:00.552Z,92.46
2022-10-03T00:11:00.573Z,92.81
2022-10-03T00:12:00.531Z,92.41
2022-10-03T00:13:00.521Z,93.12
2022-10-03T00:14:00.502Z,92.41
2022-10-03T00:15:00.499Z,92.87
2022-10-03T00:16:00.532Z,92.71
2022-10-03T00:17:00.492Z,93.22
2022-10-03T00:18:00.460Z,92.71
2022-10-03T00:19:00.450Z,92.41
2022-10-03T00:20:00.432Z,92.41
2022-10-03T00:21:00.421Z,92.50
2022-10-03T00:22:00.411Z,92.81
2022-10-03T00:23:00.422Z,92.30
2022-10-03T00:24:00.389Z,92.41
2022-10-03T00:25:00.382Z,92.81
2022-10-03T00:26:00.361Z,93.63
2022-10-03T00:27:00.361Z,92.81
2022-10-03T00:28:00.387Z,92.91
2022-10-03T00:29:00.351Z,92.41
2022-10-03T00:30:00.322Z,92.45
2022-10-03T00:31:00.367Z,91.89
2022-10-03T00:32:00.296Z,91.89
2022-10-03T00:33:00.292Z,92.71
2022-10-03T00:34:00.302Z,92.35
2022-10-03T00:35:00.261Z,92.04
2022-10-03T00:36:00.252Z,91.53
2022-10-03T00:37:00.241Z,92.45
2022-10-03T00:38:00.232Z,91.83
2022-10-03T00:39:00.221Z,91.63
2022-10-03T00:40:00.224Z,91.12
2022-10-03T00:41:00.199Z,91.53
2022-10-03T00:42:00.186Z,91.06
2022-10-03T00:43:00.171Z,90.75
2022-10-03T00:44:00.153Z,90.71
2022-10-03T00:45:00.162Z,91.06
2022-10-03T00:46:00.154Z,90.66
2022-10-03T00:47:00.229Z,90.35
2022-10-03T00:48:00.112Z,90.25
2022-10-03T00:49:00.103Z,90.45
2022-10-03T00:50:00.103Z,90.45
2022-10-03T00:51:00.085Z,89.43
2022-10-03T00:52:00.090Z,89.84
2022-10-03T00:53:00.074Z,90.14
2022-10-03T00:54:00.042Z,90.35
2022-10-03T00:55:00.031Z,89.47
2022-10-03T00:56:00.020Z,89.47
2022-10-03T00:57:00.013Z,89.37
2022-10-03T00:58:00.021Z,90.39
2022-10-03T00:58:59.991Z,89.26
2022-10-03T00:59:59.972Z,89.98
2022-10-03T01:00:59.999Z,90.08
2022-10-03T01:02:00.015Z,90.08
2022-10-03T01:02:59.961Z,90.19
2022-10-03T01:03:59.934Z,90.49
2022-10-03T01:04:59.926Z,89.17
2022-10-03T01:05:59.902Z,89.06
2022-10-03T01:06:59.893Z,89.26
2022-10-03T01:07:59.883Z,89.78
2022-10-03T01:08:59.892Z,90.08
2022-10-03T01:09:59.860Z,89.98
2022-10-03T01:10:59.853Z,89.26
2022-10-03T01:11:59.840Z,88.55
2022-10-03T01:12:59.831Z,88.90
2022-10-03T01:13:59.812Z,88.59
2022-10-03T01:14:59.822Z,88.70
2022-10-03T01:15:59.827Z,87.67
2022-10-03T01:16:59.782Z,87.77
2022-10-03T01:17:59.771Z,87.98
2022-10-03T01:18:59.762Z,89.00
2022-10-03T01:19:59.771Z,89.72
2022-10-03T01:20:59.733Z,88.90
2022-10-03T01:21:59.722Z,88.39
2022-10-03T01:22:59.712Z,87.98
2022-10-03T01:23:59.701Z,88.79
2022-10-03T01:24:59.693Z,87.98
2022-10-03T01:25:59.692Z,88.90
2022-10-03T01:26:59.671Z,87.77
2022-10-03T01:27:59.704Z,87.41
2022-10-03T01:28:59.642Z,87.71
2022-10-03T01:29:59.632Z,87.10
2022-10-03T01:30:59.687Z,87.88
2022-10-03T01:31:59.611Z,88.53
2022-10-03T01:32:59.601Z,87.71
2022-10-03T01:33:59.583Z,87.71
2022-10-03T01:34:59.579Z,87.41
2022-10-03T01:35:59.563Z,88.02
2022-10-03T01:36:59.573Z,87.61
2022-10-03T01:37:59.540Z,87.41
2022-10-03T01:38:59.532Z,87.10
2022-10-03T01:39:59.513Z,88.43
2022-10-03T01:40:59.511Z,87.71
2022-10-03T01:41:59.492Z,87.30
2022-10-03T01:42:59.502Z,86.49
2022-10-03T01:43:59.472Z,87.82
2022-10-03T01:44:59.460Z,88.12
2022-10-03T01:45:59.446Z,87.61
2022-10-03T01:46:59.532Z,88.12
2022-10-03T01:47:59.423Z,87.45
2022-10-03T01:48:59.431Z,88.53
2022-10-03T01:49:59.400Z,87.85
2022-10-03T01:50:59.393Z,87.45
2022-10-03T01:51:59.383Z,86.73
2022-10-03T01:52:59.372Z,88.17
2022-10-03T01:53:59.374Z,87.45
2022-10-03T01:54:59.343Z,87.04
2022-10-03T01:55:59.332Z,88.37
2022-10-03T01:56:59.323Z,88.06
2022-10-03T01:57:59.311Z,88.37
2022-10-03T01:58:59.301Z,87.85
2022-10-03T01:59:59.302Z,86.32
2022-10-03T02:00:59.360Z,87.65
2022-10-03T02:01:59.272Z,87.45
2022-10-03T02:02:59.253Z,87.76
2022-10-03T02:03:59.233Z,87.35
2022-10-03T02:04:59.242Z,88.51
2022-10-03T02:05:59.232Z,87.29
2022-10-03T02:06:59.212Z,86.88
2022-10-03T02:07:59.193Z,86.77
2022-10-03T02:08:59.188Z,87.29
2022-10-03T02:09:59.171Z,87.49
2022-10-03T02:10:59.184Z,87.49
2022-10-03T02:11:59.142Z,87.08
2022-10-03T02:12:59.143Z,87.59
2022-10-03T02:13:59.124Z,88.00
2022-10-03T02:14:59.112Z,86.91
2022-10-03T02:15:59.139Z,86.91
2022-10-03T02:16:59.115Z,86.40
2022-10-03T02:17:59.081Z,86.30
2022-10-03T02:18:59.071Z,86.71
2022-10-03T02:19:59.060Z,85.99
2022-10-03T02:20:59.049Z,86.10
2022-10-03T02:21:59.032Z,85.89
2022-10-03T02:22:59.042Z,85.58
2022-10-03T02:23:59.021Z,85.07
2022-10-03T02:24:59.002Z,85.38
2022-10-03T02:25:58.990Z,85.64
2022-10-03T02:26:58.981Z,87.12
2022-10-03T02:27:59.009Z,86.10
2022-10-03T02:28:58.981Z,86.40
2022-10-03T02:29:58.943Z,86.71
2022-10-03T02:30:58.931Z,86.71
2022-10-03T02:31:58.968Z,85.89
2022-10-03T02:32:58.912Z,85.89
2022-10-03T02:33:58.892Z,85.99
2022-10-03T02:34:58.912Z,85.38
2022-10-03T02:35:58.872Z,85.28
2022-10-03T02:36:58.872Z,85.07
2022-10-03T02:37:58.852Z,85.07
2022-10-03T02:38:58.854Z,85.38
2022-10-03T02:39:58.829Z,85.58
2022-10-03T02:40:58.841Z,85.28
2022-10-03T02:41:58.803Z,85.58
2022-10-03T02:42:58.803Z,85.99
2022-10-03T02:43:58.782Z,85.69
2022-10-03T02:44:58.773Z,87.22
2022-10-03T02:45:58.808Z,86.30
2022-10-03T02:46:58.769Z,86.81
2022-10-03T02:48:13.749Z,87.22
2022-10-03T02:48:59.733Z,86.81
2022-10-03T02:49:58.713Z,86.71
2022-10-03T02:50:58.710Z,87.12
2022-10-03T02:51:58.712Z,87.12
2022-10-03T02:52:58.683Z,87.84
2022-10-03T02:53:58.671Z,86.14
2022-10-03T02:54:58.661Z,85.99
2022-10-03T02:55:58.650Z,86.20
2022-10-03T02:56:58.641Z,86.10
2022-10-03T02:57:58.652Z,86.30
2022-10-03T02:58:58.622Z,86.20
2022-10-03T02:59:58.602Z,86.44
2022-10-03T03:00:58.664Z,87.98
2022-10-03T03:01:58.616Z,87.16
2022-10-03T03:02:58.571Z,87.47
2022-10-03T03:03:58.587Z,88.08
2022-10-03T03:04:58.551Z,87.98
2022-10-03T03:05:58.541Z,88.18
2022-10-03T03:06:58.521Z,88.94
2022-10-03T03:07:58.523Z,89.15
2022-10-03T03:08:58.522Z,88.84
2022-10-03T03:09:58.491Z,89.25
2022-10-03T03:10:58.479Z,89.81
2022-10-03T03:11:58.470Z,87.96
2022-10-03T03:12:58.456Z,88.27
2022-10-03T03:13:58.451Z,87.04
2022-10-03T03:14:58.450Z,86.32
2022-10-03T03:15:58.477Z,83.65
2022-10-03T03:16:58.411Z,82.49
2022-10-03T03:17:58.401Z,81.67
2022-10-03T03:18:58.389Z,82.39
2022-10-03T03:20:05.440Z,83.31
2022-10-03T03:20:58.360Z,81.43
2022-10-03T03:21:58.362Z,81.32
2022-10-03T03:22:58.349Z,82.65
2022-10-03T03:23:58.340Z,83.47
2022-10-03T03:24:58.320Z,83.17
2022-10-03T03:25:58.339Z,81.94
2022-10-03T03:26:58.300Z,83.23
2022-10-03T03:27:58.372Z,83.78
2022-10-03T03:28:58.271Z,83.23
2022-10-03T03:29:58.269Z,83.54
2022-10-03T03:30:58.251Z,82.92
2022-10-03T03:31:58.338Z,83.23
2022-10-03T03:32:58.228Z,83.13
2022-10-03T03:33:58.220Z,83.95
2022-10-03T03:34:58.208Z,83.84
2022-10-03T03:35:58.200Z,82.62
2022-10-03T03:36:58.209Z,83.03
2022-10-03T03:37:58.180Z,83.29
2022-10-03T03:38:58.160Z,82.48
2022-10-03T03:39:58.150Z,83.60
2022-10-03T03:40:58.150Z,83.70
2022-10-03T03:41:58.130Z,83.50
2022-10-03T03:42:58.140Z,83.19
2022-10-03T03:43:58.117Z,83.70
2022-10-03T03:44:58.098Z,85.24
2022-10-03T03:45:58.126Z,84.83
2022-10-03T03:46:58.070Z,85.64
2022-10-03T03:47:58.062Z,86.26
2022-10-03T03:48:58.062Z,84.83
2022-10-03T03:49:58.040Z,85.75
2022-10-03T03:50:58.040Z,85.85
2022-10-03T03:51:58.019Z,85.75
2022-10-03T03:52:58.000Z,84.63
2022-10-03T03:53:58.018Z,83.81
2022-10-03T03:54:57.980Z,84.11
2022-10-03T03:55:57.970Z,84.72
2022-10-03T03:56:57.950Z,84.89
2022-10-03T03:57:57.950Z,84.58
2022-10-03T03:58:57.940Z,83.97
2022-10-03T03:59:57.940Z,85.50
2022-10-03T04:00:57.954Z,84.28
2022-10-03T04:01:57.958Z,84.38
2022-10-03T04:02:57.890Z,85.06
2022-10-03T04:03:57.880Z,85.77
2022-10-03T04:04:57.920Z,86.18
2022-10-03T04:05:57.859Z,86.49
2022-10-03T04:06:57.845Z,86.90
2022-10-03T04:07:57.840Z,86.83
2022-10-03T04:08:57.820Z,87.30
2022-10-03T04:09:57.812Z,87.71
2022-10-03T04:10:57.809Z,86.69
2022-10-03T04:11:57.789Z,86.59
2022-10-03T04:12:57.770Z,87.00
2022-10-03T04:13:57.761Z,87.92
2022-10-03T04:14:57.761Z,88.33
2022-10-03T04:15:57.760Z,88.84
2022-10-03T04:16:57.756Z,88.84
2022-10-03T04:17:57.720Z,89.15
2022-10-03T04:18:57.706Z,89.31
2022-10-03T04:19:57.706Z,89.41
2022-10-03T04:20:57.681Z,89.92
2022-10-03T04:21:57.690Z,90.23
2022-10-03T04:22:57.660Z,89.51
2022-10-03T04:23:57.649Z,89.72
2022-10-03T04:24:57.638Z,90.08
2022-10-03T04:25:57.630Z,90.59
2022-10-03T04:26:57.610Z,91.52
2022-10-03T04:27:57.714Z,91.82
2022-10-03T04:28:57.589Z,92.43
2022-10-03T04:29:57.581Z,92.59
2022-10-03T04:30:57.570Z,92.84
2022-10-03T04:31:57.595Z,93.51
2022-10-03T04:32:57.550Z,93.21
2022-10-03T04:33:57.559Z,93.51
2022-10-03T04:34:57.522Z,94.53
2022-10-03T04:35:57.511Z,94.33
2022-10-03T04:36:57.498Z,95.04
2022-10-03T04:37:57.492Z,94.74
2022-10-03T04:38:57.470Z,94.94
2022-10-03T04:39:57.488Z,95.45
2022-10-03T04:40:57.450Z,95.45
2022-10-03T04:41:57.439Z,95.65
2022-10-03T04:42:57.428Z,95.35
2022-10-03T04:43:57.424Z,95.04
2022-10-03T04:44:57.409Z,95.25
2022-10-03T04:45:57.481Z,96.11
2022-10-03T04:46:57.381Z,95.19
2022-10-03T04:47:57.370Z,95.60
2022-10-03T04:48:57.359Z,94.78
2022-10-03T04:49:57.350Z,95.29
2022-10-03T04:50:57.344Z,94.98
2022-10-03T04:51:57.346Z,94.98
2022-10-03T04:52:57.314Z,95.70
2022-10-03T04:53:57.300Z,95.70
2022-10-03T04:54:57.290Z,95.29
2022-10-03T04:55:57.280Z,95.70
2022-10-03T04:56:57.280Z,96.01
2022-10-03T04:57:59.448Z,95.19
2022-10-03T04:58:58.240Z,94.68
2022-10-03T04:59:57.238Z,94.68
2022-10-03T05:00:57.268Z,94.12
2022-10-03T05:01:57.270Z,94.84
2022-10-03T05:02:57.212Z,95.04
2022-10-03T05:03:57.191Z,94.64
2022-10-03T05:04:57.170Z,95.35
2022-10-03T05:05:57.169Z,95.45
2022-10-03T05:06:57.150Z,95.76
2022-10-03T05:07:57.160Z,95.56
2022-10-03T05:08:57.130Z,95.15
2022-10-03T05:09:57.124Z,95.35
2022-10-03T05:10:57.109Z,95.45
2022-10-03T05:11:57.101Z,95.86
2022-10-03T05:12:57.085Z,95.56
2022-10-03T05:13:57.100Z,95.04
2022-10-03T05:14:57.060Z,94.48
2022-10-03T05:15:57.050Z,94.64
2022-10-03T05:16:57.129Z,95.04
2022-10-03T05:17:57.030Z,94.17
2022-10-03T05:18:57.030Z,94.33
2022-10-03T05:19:57.002Z,94.94
2022-10-03T05:20:56.991Z,95.35
2022-10-03T05:21:56.979Z,95.76
2022-10-03T05:22:56.960Z,95.86
2022-10-03T05:23:56.960Z,95.25
2022-10-03T05:24:56.970Z,95.65
2022-10-03T05:26:10.813Z,95.65
2022-10-03T05:26:57.920Z,94.98
2022-10-03T05:27:56.953Z,94.68
2022-10-03T05:28:56.899Z,94.78
2022-10-03T05:29:56.892Z,94.78
2022-10-03T05:30:56.898Z,95.15
2022-10-03T05:31:56.894Z,94.64
2022-10-03T05:32:56.854Z,95.15
2022-10-03T05:33:56.840Z,95.25
2022-10-03T05:34:56.830Z,96.37
2022-10-03T05:35:56.821Z,97.33
2022-10-03T05:36:56.820Z,97.54
2022-10-03T05:37:56.800Z,97.85
2022-10-03T05:38:56.780Z,97.79
2022-10-03T05:39:56.778Z,97.89
2022-10-03T05:40:56.760Z,97.79
2022-10-03T05:42:20.867Z,97.38
2022-10-03T05:42:57.739Z,96.36
2022-10-03T05:43:56.730Z,95.85
2022-10-03T05:44:56.711Z,94.93
2022-10-03T05:45:56.726Z,94.52
2022-10-03T05:46:56.691Z,93.40
2022-10-03T05:47:56.709Z,92.88
2022-10-03T05:48:56.670Z,92.33
2022-10-03T05:49:56.660Z,92.74
2022-10-03T05:50:56.649Z,93.15
2022-10-03T05:51:56.639Z,92.94
2022-10-03T05:52:56.620Z,93.55
2022-10-03T05:53:56.660Z,93.25
2022-10-03T05:54:56.600Z,92.84
2022-10-03T05:55:56.590Z,93.35
2022-10-03T05:56:56.582Z,92.19
2022-10-03T05:57:56.569Z,92.59
2022-10-03T05:58:56.559Z,92.29
2022-10-03T05:59:56.580Z,93.10
2022-10-03T06:00:56.670Z,93.00
2022-10-03T06:01:56.534Z,93.47
2022-10-03T06:02:56.613Z,94.70
2022-10-03T06:03:56.500Z,94.59
2022-10-03T06:04:56.489Z,94.29
2022-10-03T06:05:56.490Z,94.59
2022-10-03T06:06:56.459Z,95.20
2022-10-03T06:07:56.460Z,95.72
2022-10-03T06:08:56.440Z,95.41
2022-10-03T06:09:56.430Z,96.12
2022-10-03T06:10:56.440Z,95.81
2022-10-03T06:11:56.409Z,96.28
2022-10-03T06:12:56.391Z,96.08
2022-10-03T06:13:56.380Z,96.69
2022-10-03T06:14:56.369Z,96.48
2022-10-03T06:15:56.389Z,97.20
2022-10-03T06:16:56.369Z,96.69
2022-10-03T06:17:56.341Z,96.02
2022-10-03T06:18:56.320Z,95.77
2022-10-03T06:19:56.319Z,95.87
2022-10-03T06:20:56.304Z,96.28
2022-10-03T06:21:56.330Z,96.18
2022-10-03T06:22:56.280Z,97.40
2022-10-03T06:23:56.268Z,96.48
2022-10-03T06:24:56.250Z,96.48
2022-10-03T06:25:56.249Z,96.69
2022-10-03T06:26:56.230Z,96.95
2022-10-03T06:27:56.270Z,97.66
2022-10-03T06:28:56.210Z,98.94
2022-10-03T06:29:56.200Z,99.61
2022-10-03T06:30:56.233Z,99.99
2022-10-03T06:31:56.179Z,99.99
2022-10-03T06:32:56.171Z,99.99
2022-10-03T06:33:56.170Z,99.99
2022-10-03T06:34:56.140Z,99.99
2022-10-03T06:35:56.130Z,99.99
2022-10-03T06:36:56.119Z,99.99
2022-10-03T06:37:56.109Z,98.58
2022-10-03T06:38:56.120Z,95.71
2022-10-03T06:39:56.090Z,91.37
2022-10-03T06:40:56.077Z,86.87
2022-10-03T06:41:56.062Z,84.91
2022-10-03T06:42:56.052Z,82.99
2022-10-03T06:43:56.113Z,82.35
2022-10-03T06:44:56.041Z,82.71
2022-10-03T06:45:56.090Z,78.94
2022-10-03T06:46:56.002Z,75.60
2022-10-03T06:47:55.991Z,75.26
2022-10-03T06:48:55.986Z,72.24
2022-10-03T06:49:55.991Z,71.87
2022-10-03T06:50:55.959Z,70.12
2022-10-03T06:51:55.951Z,70.39
2022-10-03T06:52:55.932Z,67.74
2022-10-03T06:53:55.922Z,67.48
2022-10-03T06:54:55.912Z,65.14
2022-10-03T06:55:55.922Z,64.51
2022-10-03T06:56:55.882Z,64.48
2022-10-03T06:57:55.880Z,63.54
2022-10-03T06:58:55.863Z,63.50
2022-10-03T06:59:55.884Z,64.07
2022-10-03T07:00:56.050Z,64.62
2022-10-03T07:01:55.907Z,61.51
2022-10-03T07:02:55.895Z,63.11
2022-10-03T07:03:55.812Z,61.48
2022-10-03T07:04:55.793Z,61.65
2022-10-03T07:05:55.823Z,59.02
2022-10-03T07:06:55.792Z,58.99
2022-10-03T07:07:55.766Z,59.68
2022-10-03T07:08:55.753Z,60.33
2022-10-03T07:09:55.743Z,61.90
2022-10-03T07:10:55.727Z,63.70
2022-10-03T07:11:55.742Z,62.89
2022-10-03T07:12:55.705Z,65.19
2022-10-03T07:13:55.694Z,67.30
2022-10-03T07:14:55.687Z,69.15
2022-10-03T07:16:25.675Z,68.44
2022-10-03T07:16:56.746Z,68.18
2022-10-03T07:17:55.648Z,65.16
2022-10-03T07:18:55.645Z,63.71
2022-10-03T07:19:55.625Z,64.15
2022-10-03T07:20:55.615Z,64.58
2022-10-03T07:21:55.606Z,64.31
2022-10-03T07:22:55.616Z,64.84
2022-10-03T07:23:55.577Z,65.82
2022-10-03T07:24:55.566Z,65.15
2022-10-03T07:25:55.557Z,66.58
2022-10-03T07:26:55.549Z,68.97
2022-10-03T07:27:55.570Z,70.69
2022-10-03T07:28:55.577Z,69.65
2022-10-03T07:29:55.507Z,70.69
2022-10-03T07:30:55.542Z,72.78
2022-10-03T07:31:55.487Z,69.01
2022-10-03T07:32:55.477Z,68.77
2022-10-03T07:33:55.501Z,67.73
2022-10-03T07:34:55.499Z,67.46
2022-10-03T07:35:55.440Z,69.24
2022-10-03T07:36:55.429Z,69.24
2022-10-03T07:37:55.417Z,69.15
2022-10-03T07:38:55.411Z,70.19
2022-10-03T07:39:55.388Z,70.83
2022-10-03T07:40:55.408Z,71.17
2022-10-03T07:41:55.369Z,73.09
2022-10-03T07:42:55.368Z,74.48
2022-10-03T07:43:55.355Z,77.75
2022-10-03T07:44:55.340Z,78.97
2022-10-03T07:45:55.353Z,80.53
2022-10-03T07:46:55.339Z,82.82
2022-10-03T07:47:55.298Z,82.62
2022-10-03T07:48:55.290Z,84.75
2022-10-03T07:49:55.279Z,86.39
2022-10-03T07:50:55.460Z,89.48
2022-10-03T07:51:55.259Z,92.32
2022-10-03T07:52:55.271Z,92.93
2022-10-03T07:53:55.239Z,94.76
2022-10-03T07:54:55.230Z,92.72
2022-10-03T07:55:55.210Z,93.13
2022-10-03T07:56:55.200Z,93.49
2022-10-03T07:57:55.188Z,93.44
2022-10-03T07:58:55.199Z,95.62
2022-10-03T07:59:55.184Z,97.19
2022-10-03T08:00:55.151Z,98.14
2022-10-03T08:01:55.141Z,99.21
2022-10-03T08:02:55.178Z,98.91
2022-10-03T08:03:55.213Z,99.47
2022-10-03T08:04:55.111Z,99.11
2022-10-03T08:05:55.091Z,99.31
2022-10-03T08:06:55.089Z,99.67
2022-10-03T08:07:55.071Z,99.77
2022-10-03T08:08:55.063Z,99.47
2022-10-03T08:09:55.071Z,99.77
2022-10-03T08:10:55.042Z,99.32
2022-10-03T08:11:55.022Z,98.71
2022-10-03T08:12:55.022Z,98.30
2022-10-03T08:13:55.006Z,98.16
2022-10-03T08:14:55.000Z,96.03
2022-10-03T08:15:55.060Z,94.73
2022-10-03T08:16:54.992Z,93.51
2022-10-03T08:17:54.965Z,93.00
2022-10-03T08:18:54.950Z,92.40
2022-10-03T08:19:54.932Z,92.80
2022-10-03T08:20:54.951Z,91.52
2022-10-03T08:21:54.912Z,92.38
2022-10-03T08:22:54.903Z,93.19
2022-10-03T08:23:54.893Z,93.60
2022-10-03T08:24:57.358Z,94.76
2022-10-03T08:25:54.863Z,96.48
2022-10-03T08:26:54.902Z,97.09
2022-10-03T08:27:54.879Z,97.40
2022-10-03T08:28:54.833Z,98.21
2022-10-03T08:29:54.826Z,97.40
2022-10-03T08:30:54.861Z,97.56
2022-10-03T08:31:54.793Z,96.84
2022-10-03T08:32:54.824Z,97.05
2022-10-03T08:33:54.775Z,96.23
2022-10-03T08:34:54.775Z,96.18
2022-10-03T08:35:54.753Z,96.59
2022-10-03T08:36:54.743Z,97.15
2022-10-03T08:37:54.733Z,95.22
2022-10-03T08:38:54.744Z,95.53
2022-10-03T08:39:54.709Z,95.38
2022-10-03T08:40:54.694Z,94.64
2022-10-03T08:41:54.684Z,91.94
2022-10-03T08:42:54.674Z,93.51
2022-10-03T08:43:54.663Z,93.51
2022-10-03T08:44:54.664Z,93.21
2022-10-03T08:45:54.634Z,91.05
2022-10-03T08:46:54.662Z,87.73
2022-10-03T08:47:54.613Z,86.71
2022-10-03T08:48:54.606Z,84.48
2022-10-03T08:49:54.618Z,84.14
2022-10-03T08:50:54.584Z,83.98
2022-10-03T08:51:54.566Z,85.74
2022-10-03T08:52:54.555Z,88.11
2022-10-03T08:53:54.544Z,88.92
2022-10-03T08:54:54.535Z,89.79
2022-10-03T08:55:54.545Z,88.02
2022-10-03T08:56:54.515Z,85.93
2022-10-03T08:57:54.518Z,83.50
2022-10-03T08:58:54.494Z,84.25
2022-10-03T08:59:54.477Z,83.19
2022-10-03T09:00:54.466Z,78.84
2022-10-03T09:01:54.530Z,79.21
2022-10-03T09:03:13.968Z,76.84
2022-10-03T09:03:55.458Z,76.34
2022-10-03T09:04:54.429Z,77.11
2022-10-03T09:05:54.406Z,75.26
2022-10-03T09:07:16.159Z,72.47
2022-10-03T09:07:55.386Z,69.69
2022-10-03T09:08:54.377Z,69.89
2022-10-03T09:09:54.365Z,69.18
2022-10-03T09:10:54.356Z,70.32
2022-10-03T09:11:54.346Z,69.82
2022-10-03T09:12:54.387Z,69.62
2022-10-03T09:13:54.327Z,70.76
2022-10-03T09:14:54.317Z,71.06
2022-10-03T09:15:54.346Z,71.40
2022-10-03T09:16:54.290Z,71.70
2022-10-03T09:17:54.268Z,70.59
2022-10-03T09:18:54.278Z,71.20
2022-10-03T09:19:54.248Z,71.10
2022-10-03T09:21:01.348Z,72.20
2022-10-03T09:21:54.230Z,73.01
2022-10-03T09:22:54.229Z,73.58
2022-10-03T09:23:54.238Z,72.37
2022-10-03T09:24:54.205Z,70.86
2022-10-03T09:25:54.181Z,71.40
2022-10-03T09:26:54.171Z,71.26
2022-10-03T09:27:54.255Z,70.26
2022-10-03T09:28:54.150Z,71.06
2022-10-03T09:29:54.169Z,70.96
2022-10-03T09:30:54.203Z,70.16
2022-10-03T09:31:54.198Z,69.85
2022-10-03T09:32:54.111Z,70.39
2022-10-03T09:33:54.094Z,71.53
2022-10-03T09:34:54.083Z,72.07
2022-10-03T09:35:54.081Z,73.28
2022-10-03T09:36:54.062Z,73.68
2022-10-03T09:37:54.042Z,75.54
2022-10-03T09:38:54.032Z,74.22
2022-10-03T09:39:54.022Z,75.43
2022-10-03T09:40:54.033Z,74.43
2022-10-03T09:41:53.993Z,75.63
2022-10-03T09:42:53.992Z,76.18
2022-10-03T09:43:53.974Z,76.64
2022-10-03T09:44:53.973Z,76.04
2022-10-03T09:45:53.944Z,76.34
2022-10-03T09:46:54.017Z,78.59
2022-10-03T09:47:53.924Z,76.24
2022-10-03T09:48:53.913Z,76.75
2022-10-03T09:49:53.902Z,76.84
2022-10-03T09:50:53.894Z,76.34
2022-10-03T09:51:53.874Z,76.00
2022-10-03T09:52:53.874Z,73.28
2022-10-03T09:53:53.863Z,75.20
2022-10-03T09:54:53.853Z,72.64
2022-10-03T09:55:53.824Z,72.71
2022-10-03T09:56:53.825Z,71.91
2022-10-03T09:57:53.825Z,73.72
2022-10-03T09:58:53.795Z,73.14
2022-10-03T09:59:53.784Z,71.40
2022-10-03T10:00:53.807Z,70.83
2022-10-03T10:01:53.755Z,71.80
2022-10-03T10:02:53.745Z,70.86
2022-10-03T10:03:53.819Z,68.71
2022-10-03T10:04:55.663Z,69.18
2022-10-03T10:05:53.713Z,67.38
2022-10-03T10:06:53.705Z,67.04
2022-10-03T10:07:53.686Z,66.84
2022-10-03T10:08:53.677Z,67.91
2022-10-03T10:09:53.684Z,66.61
2022-10-03T10:10:53.656Z,65.91
2022-10-03T10:11:53.645Z,66.44
2022-10-03T10:12:53.647Z,67.55
2022-10-03T10:14:07.302Z,67.44
2022-10-03T10:14:54.700Z,67.04
2022-10-03T10:15:53.669Z,67.78
2022-10-03T10:16:53.916Z,69.05
2022-10-03T10:17:53.567Z,68.85
2022-10-03T10:18:53.568Z,68.01
2022-10-03T10:19:53.549Z,67.47
2022-10-03T10:20:53.558Z,67.14
2022-10-03T10:21:53.537Z,65.77
2022-10-03T10:22:53.517Z,66.37
2022-10-03T10:23:53.583Z,66.87
2022-10-03T10:24:53.502Z,67.38
2022-10-03T10:25:53.509Z,67.07
2022-10-03T10:26:53.468Z,67.07
2022-10-03T10:27:53.494Z,66.57
2022-10-03T10:28:53.448Z,65.77
2022-10-03T10:29:53.429Z,65.53
2022-10-03T10:30:53.429Z,66.71
2022-10-03T10:31:53.468Z,66.67
2022-10-03T10:32:53.408Z,64.81
2022-10-03T10:33:53.399Z,63.90
2022-10-03T10:34:53.381Z,64.01
2022-10-03T10:35:53.359Z,63.00
2022-10-03T10:36:53.364Z,62.93
2022-10-03T10:37:53.390Z,63.03
2022-10-03T10:38:53.333Z,61.83
2022-10-03T10:39:53.330Z,64.07
2022-10-03T10:40:53.313Z,63.67
2022-10-03T10:41:53.299Z,63.76
2022-10-03T10:42:53.291Z,64.13
2022-10-03T10:43:53.301Z,66.37
2022-10-03T10:44:53.272Z,66.97
2022-10-03T10:45:53.253Z,67.71
2022-10-03T10:46:53.272Z,68.48
2022-10-03T10:47:53.240Z,68.15
2022-10-03T10:48:53.222Z,67.85
2022-10-03T10:49:53.239Z,66.61
2022-10-03T10:50:53.202Z,65.91
2022-10-03T10:51:53.182Z,64.63
2022-10-03T10:52:53.183Z,66.17
2022-10-03T10:53:53.171Z,65.97
2022-10-03T10:54:53.154Z,66.17
2022-10-03T10:55:53.162Z,65.09
2022-10-03T10:56:53.133Z,64.89
2022-10-03T10:57:53.114Z,65.12
2022-10-03T10:58:53.112Z,65.73
2022-10-03T10:59:53.095Z,65.83
2022-10-03T11:00:53.129Z,66.33
2022-10-03T11:01:53.096Z,66.13
2022-10-03T11:02:53.064Z,66.43
2022-10-03T11:03:53.054Z,66.13
2022-10-03T11:04:53.109Z,65.22
2022-10-03T11:05:53.024Z,66.63
2022-10-03T11:06:53.024Z,64.39
2022-10-03T11:07:54.190Z,64.99
2022-10-03T11:08:52.995Z,65.26
2022-10-03T11:09:52.975Z,64.79
2022-10-03T11:10:52.974Z,64.66
2022-10-03T11:11:52.954Z,65.03
2022-10-03T11:12:52.947Z,64.03
2022-10-03T11:13:52.966Z,64.13
2022-10-03T11:14:52.925Z,61.82
2022-10-03T11:15:52.927Z,62.29
2022-10-03T11:16:52.973Z,61.35
2022-10-03T11:17:52.887Z,59.79
2022-10-03T11:18:52.884Z,59.85
2022-10-03T11:19:52.927Z,60.32
2022-10-03T11:20:52.897Z,59.52
2022-10-03T11:21:52.855Z,59.42
2022-10-03T11:22:52.836Z,59.42
2022-10-03T11:23:52.826Z,60.02
2022-10-03T11:24:52.807Z,58.75
2022-10-03T11:25:52.818Z,58.57
2022-10-03T11:26:52.789Z,59.91
2022-10-03T11:27:52.822Z,60.44
2022-10-03T11:28:52.759Z,61.04
2022-10-03T11:29:52.757Z,62.27
2022-10-03T11:30:52.738Z,63.05
2022-10-03T11:31:52.830Z,62.35
2022-10-03T11:32:52.717Z,63.25
2022-10-03T11:33:52.716Z,62.62
2022-10-03T11:34:52.698Z,61.61
2022-10-03T11:35:52.689Z,61.41
2022-10-03T11:36:52.678Z,62.22
2022-10-03T11:37:52.687Z,62.92
2022-10-03T11:38:52.651Z,61.91
2022-10-03T11:39:52.644Z,60.81
2022-10-03T11:40:52.630Z,60.03
2022-10-03T11:41:52.610Z,58.93
2022-10-03T11:42:52.599Z,59.13
2022-10-03T11:43:52.620Z,58.33
2022-10-03T11:44:52.584Z,58.62
2022-10-03T11:45:52.634Z,60.13
2022-10-03T11:46:52.560Z,60.03
2022-10-03T11:47:52.543Z,59.74
2022-10-03T11:48:52.532Z,60.24
2022-10-03T11:49:52.543Z,60.84
2022-10-03T11:50:52.510Z,61.44
2022-10-03T11:51:53.770Z,60.24
2022-10-03T11:52:52.482Z,59.06
2022-10-03T11:53:57.093Z,59.89
2022-10-03T11:54:53.471Z,59.48
2022-10-03T11:55:52.453Z,59.28
2022-10-03T11:56:52.433Z,59.89
2022-10-03T11:57:52.431Z,58.91
2022-10-03T11:58:52.412Z,59.42
2022-10-03T11:59:52.402Z,59.59
2022-10-03T12:00:52.414Z,59.28
2022-10-03T12:01:52.454Z,59.56
2022-10-03T12:02:52.533Z,60.13
2022-10-03T12:03:52.368Z,59.83
2022-10-03T12:04:52.342Z,59.70
2022-10-03T12:05:52.336Z,60.08
2022-10-03T12:06:52.332Z,59.34
2022-10-03T12:07:56.198Z,58.11
2022-10-03T12:08:53.293Z,56.81
2022-10-03T12:09:52.284Z,57.48
2022-10-03T12:10:52.263Z,56.28
2022-10-03T12:11:52.264Z,55.22
2022-10-03T12:12:52.264Z,54.12
2022-10-03T12:13:52.253Z,53.52
2022-10-03T12:14:52.224Z,53.32
2022-10-03T12:15:52.214Z,54.30
2022-10-03T12:16:52.284Z,53.07
2022-10-03T12:17:52.224Z,51.77
2022-10-03T12:18:52.184Z,50.96
2022-10-03T12:19:52.183Z,51.49
2022-10-03T12:20:52.153Z,51.39
2022-10-03T12:21:52.145Z,51.62
2022-10-03T12:22:52.135Z,52.92
2022-10-03T12:23:52.157Z,53.92
2022-10-03T12:24:52.115Z,53.12
2022-10-03T12:25:52.105Z,53.02
2022-10-03T12:26:52.096Z,52.69
2022-10-03T12:27:52.159Z,51.89
2022-10-03T12:28:52.064Z,51.79
2022-10-03T12:29:52.078Z,52.19
2022-10-03T12:30:52.049Z,51.07
2022-10-03T12:31:52.072Z,50.26
2022-10-03T12:32:52.017Z,48.74
2022-10-03T12:33:52.020Z,48.74
2022-10-03T12:34:52.027Z,48.94
2022-10-03T12:35:51.987Z,49.64
2022-10-03T12:36:51.970Z,49.74
2022-10-03T12:37:51.968Z,49.14
2022-10-03T12:38:52.021Z,50.44
2022-10-03T12:39:51.995Z,49.34
2022-10-03T12:40:51.960Z,51.04
2022-10-03T12:41:51.939Z,49.87
2022-10-03T12:42:51.935Z,51.07
2022-10-03T12:43:51.909Z,50.57
2022-10-03T12:44:51.888Z,49.76
2022-10-03T12:45:51.962Z,50.16
2022-10-03T12:46:51.879Z,51.07
2022-10-03T12:47:55.858Z,50.84
2022-10-03T12:48:51.839Z,51.44
2022-10-03T12:49:51.828Z,51.26
2022-10-03T12:50:51.819Z,52.47
2022-10-03T12:51:51.829Z,52.07